South Ryegate, Vermont
Current Conditions -  °F | °C
As of 5:51 AM on Thursday 27 Nov 2014 (Local Time) from KMPV Reporting Station
Broken Clouds Broken Clouds  
Wind Chill: 17°   Ceiling: 2200
Heat Index: 26°   Visibility: 10mi
Dew Point: 22°   Wind: 9mph
Humidity: 84%   Direction: 10°N
Pressure: 29.91"   Gusts: NA
Location:  44.19°N, 72.14°W
Report Text: KMPV 271051Z AUTO 01008KT 10SM BKN022 M03/M06 A2991 RMK AO2 SNE08 SLP146 P0000 T10331056
Loading
Personal Weather Stations






























Interactive Weather Map New forecast layout! Learn more

10-Day Weather Forecast

Advertisements
Track Severe Weather on mobile